Ambleve, Belgium
Current Conditions -  °F | °C
As of 10:25 PM on Wednesday 28 Jan 2015 (Local Time) from EBLB Reporting Station
Broken Clouds Broken Clouds  
Wind Chill: 20°   Ceiling: 4700
Heat Index: 30°   Visibility: 6mi
Dew Point: 28°   Wind: 14mph
Humidity: 93%   Direction: 280°W
Pressure: 29.47"   Gusts: NA
Location:  50.35°N, 6.17°E
Report Text: EBLB 282125Z AUTO 28012KT 9999 FEW008/// SCT036/// BKN047/// M01/M02 Q0998 BLU
Loading
Personal Weather Stations






























Interactive Weather Map New forecast layout! Learn more

10-Day Weather Forecast

Advertisements
Track Severe Weather on mobile